/BCO-DMO/Kelp_forest_biogeochemistry/discrete_samples ---- Level 0

      Directory  DocumentationDownload and Other Operations...

 - At level 0 -  - At last level -       Flat list

#  Discrete samples
#  PI: Kerry NIckols 
#  Data Version 1: 2020-10-12
=========================
Site       Sample_ID         Longitude       Latitude       Depth_ID  Depth_m  Date         Time     DIC        TA         Salinity  Temperature  pH      ISO_DateTime_UTC     
-------------------------
Outside    June12_PO_1B      -121.9007333    36.6222        1B        16.474   12-Jun-18    11:57    2208.5     2265.91    33.89     9.54         7.72    2018-06-12T18:57Z    
Outside    June12_PO_1T      -121.9007333    36.6222        1T        0.835    12-Jun-18    11:57    1986.54    2261.6     33.82     12.35        8.21    2018-06-12T18:57Z    
Outside    June12_PO_S       -121.9007333    36.6222        S         0        12-Jun-18    11:57    1987.51    2263.03    33.82     12.35        8.21    2018-06-12T18:57Z    
Kelp       June12_PK_1B      -121.9017       36.62161667    1B        8.577    12-Jun-18    12:30    2077.11    2255.81    33.76     11.46        8.03    2018-06-12T19:30Z    
Kelp       June12_PK_1T      -121.9017       36.62161667    1T        0.96     12-Jun-18    12:30    1986.91    2260.88    33.87     12.63        8.21    2018-06-12T19:30Z    
Kelp       June12_PK_S       -121.9017       36.62161667    S         0        12-Jun-18    12:30    1981.01    2256.8     33.87     12.63        8.21    2018-06-12T19:30Z    
Outside    June15_PO_1B      -121.9007333    36.6222        1B        17.098   15-Jun-18    11:43    2175.48    2258.08    33.93     9.53         7.8     2018-06-15T18:43Z    
Outside    June15_PO_1T      -121.9007333    36.6222        1T        0.907    15-Jun-18    11:43    2044.22    2259.2     33.85     11.9         8.1     2018-06-15T18:43Z    
Outside    June15_PO_S       -121.9007333    36.6222        S         0        15-Jun-18    11:43    2044.85    2262.49    33.85     11.9         8.11    2018-06-15T18:43Z    
Kelp       June15_PK_1B      -121.9017       36.62161667    1B        9.112    15-Jun-18    12:13    2090.2     2250.76    33.91     9.92         8.01    2018-06-15T19:13Z    
Kelp       June15_PK_1T      -121.9017       36.62161667    1T        0.955    15-Jun-18    12:13    2059.51    2254.82    33.97     11.51        8.06    2018-06-15T19:13Z    
Kelp       June15_PK_S       -121.9017       36.62161667    S         0        15-Jun-18    12:13    2034.59    2258.32    33.86     11.68        8.12    2018-06-15T19:13Z    
Outside    June18_PO_1B      -121.9007333    36.6222        1B        15.009   18-Jun-18    10:30    2132.54    2268.25    33.88     10.43        7.94    2018-06-18T17:30Z    
Outside    June18_PO_1T      -121.9007333    36.6222        1T        1.449    18-Jun-18    10:30    2061.8     2260.7     33.76     11.49        8.08    2018-06-18T17:30Z    
Outside    June18_PO_S       -121.9007333    36.6222        S         0        18-Jun-18    10:30    2039.42    2257.05    33.76     11.49        8.12    2018-06-18T17:30Z    
Kelp       June18_PK_1B      -121.9017       36.62161667    1B        5.535    18-Jun-18    11:01    2130.96    2263.87    33.88     10.49        7.93    2018-06-18T18:01Z    
Kelp       June18_PK_1T      -121.9017       36.62161667    1T        0.836    18-Jun-18    11:01    1991.2     2249.04    33.58     11.86        8.19    2018-06-18T18:01Z    
Kelp       June18_PK_S       -121.9017       36.62161667    S         0        18-Jun-18    11:01    1969.13    2250.08    33.58     11.86        8.24    2018-06-18T18:01Z    
Outside    June21_PO_1B      -121.9007333    36.6222        1B        15.522   21-Jun-18    11:23    2148.74    2263.65    33.84     10.46        7.88    2018-06-21T18:23Z    
Outside    June21_PO_1T      -121.9007333    36.6222        1T        0.741    21-Jun-18    11:23    1984.17    2260.2     33.75     12.91        8.21    2018-06-21T18:23Z    
Outside    June21_PO_S       -121.9007333    36.6222        S         0        21-Jun-18    11:23    1984.35    2262.73    33.75     12.91        8.21    2018-06-21T18:23Z    
Kelp       June21_PK_1B      -121.9017       36.62161667    1B        7.472    21-Jun-18    12:02    2036.5     2251.16    33.78     11.99        8.1     2018-06-21T19:02Z    
Kelp       June21_PK_1T      -121.9017       36.62161667    1T        0.87     21-Jun-18    12:02    1941.81    2249.8     33.75     13.2         8.26    2018-06-21T19:02Z    
Kelp       June21_PK_S       -121.9017       36.62161667    S         0        21-Jun-18    12:02    1937.84    2248.81    33.75     13.2         8.27    2018-06-21T19:02Z    
Outside    June26_PO_1B      -121.9007333    36.6222        1B        16.519   26-Jun-18    10:05    2129.87    2259.14    33.83     10.9         7.91    2018-06-26T17:05Z    
Outside    June26_PO_1T      -121.9007333    36.6222        1T        1.453    26-Jun-18    10:05    2015.84    2255.41    33.74     13.45        8.13    2018-06-26T17:05Z    
Outside    June26_PO_S       -121.9007333    36.6222        S         0        26-Jun-18    10:05    2016.14    2258.24    33.74     13.45        8.14    2018-06-26T17:05Z    
Kelp       June26_PK_1B      -121.9017       36.62161667    1B        9.654    26-Jun-18    10:37    2101.98    2266.51    33.81     11.84        7.99    2018-06-26T17:37Z    
Kelp       June26_PK_1T      -121.9017       36.62161667    1T        1.34     26-Jun-18    10:37    2027.33    2243.56    33.73     13.21        8.09    2018-06-26T17:37Z    
Kelp       June26_PK_S       -121.9017       36.62161667    S         0        26-Jun-18    10:37    2024.34    2236.12    33.73     13.23        8.08    2018-06-26T17:37Z    
Kelp       June29_PK_1B      -121.9017       36.62161667    1B        8.446    29-Jun-18    12:16    2105.36    2254.72    33.79     12.3         7.95    2018-06-29T19:16Z    
Kelp       June29_PK_1T      -121.9017       36.62161667    1T        0.929    29-Jun-18    12:16    1968.22    2259.08    33.78     14.62        8.21    2018-06-29T19:16Z    
Kelp       June29_PK_S       -121.9017       36.62161667    S         0        29-Jun-18    12:16    1963.66    2252.5     33.78     14.62        8.2     2018-06-29T19:16Z    
Outside    June29_PO_1B      -121.9007333    36.6222        1B        15.96    29-Jun-18    12:37    2125.2     2255.8     33.82     11.55        7.91    2018-06-29T19:37Z    
Outside    June29_PO_1T      -121.9007333    36.6222        1T        1.341    29-Jun-18    12:37    2032.76    2257.06    33.81     14.39        8.08    2018-06-29T19:37Z    
Outside    June29_PO_S       -121.9007333    36.6222        S         0        29-Jun-18    12:37    2030.05    2262.51    33.81     14.39        8.1     2018-06-29T19:37Z    
Kelp       July3_PK_1T       -121.9017       36.62161667    1T        0.875    03-Jul-18    12:37    2068.84    2261.27    33.62     12.59        8.05    2018-07-03T19:37Z    
Kelp       July3_PK_S        -121.9017       36.62161667    S         0        03-Jul-18    12:37    nd         2253.49    33.62     12.59        nd      2018-07-03T19:37Z    
Outside    July3_PO_1B       -121.9007333    36.6222        1B        16.522   03-Jul-18    13:11    2109.39    2255.32    33.79     11.85        7.94    2018-07-03T20:11Z    
Outside    July3_PO_1T       -121.9007333    36.6222        1T        0.744    03-Jul-18    13:11    2078.24    2251.15    33.81     12.55        8       2018-07-03T20:11Z    
Outside    July3_PO_S        -121.9007333    36.6222        S         0        03-Jul-18    13:11    2079.63    2254.87    33.81     12.55        8.01    2018-07-03T20:11Z    
Kelp       July6_PK_1B       -121.9017       36.62161667    1B        7.513    06-Jul-18    10:46    2080.54    2237.89    33.6      14.73        7.93    2018-07-06T17:46Z    
Kelp       July6_PK_1T       -121.9017       36.62161667    1T        0.735    06-Jul-18    10:46    2018.22    2236.6     33.8      15.43        8.06    2018-07-06T17:46Z    
Kelp       July6_PK_S        -121.9017       36.62161667    S         0        06-Jul-18    10:46    1998.31    2238.96    33.8      15.43        8.1     2018-07-06T17:46Z    
Outside    July6_PO_1B       -121.9007333    36.6222        1B        15.61    06-Jul-18    11:08    2073.9     2244.08    33.6      14.34        7.97    2018-07-06T18:08Z    
Outside    July6_PO_1T       -121.9007333    36.6222        1T        1.026    06-Jul-18    11:08    2034.88    2240.58    33.71     15.39        8.03    2018-07-06T18:08Z    
Outside    July6_PO_S        -121.9007333    36.6222        S         0        06-Jul-18    11:08    2039.18    2246.18    33.6      15.68        8.03    2018-07-06T18:08Z    
Outside    July10_PO_1B      -121.9007333    36.6222        1B        16.086   10-Jul-18    11:40    2111.73    2244.86    33.78     11.71        7.91    2018-07-10T18:40Z    
Outside    July10_PO_1T      -121.9007333    36.6222        1T        0.925    10-Jul-18    11:40    2060.18    2250.75    33.71     14.83        8.01    2018-07-10T18:40Z    
Outside    July10_PO_S       -121.9007333    36.6222        S         0        10-Jul-18    11:40    2061.83    2249.59    33.52     15.06        8       2018-07-10T18:40Z    
Kelp       July10_PK_1B      -121.9017       36.62161667    1B        8.502    10-Jul-18    12:17    2082.23    2227.09    33.71     14.07        7.91    2018-07-10T19:17Z    
Kelp       July10_PK_1T      -121.9017       36.62161667    1T        0.95     10-Jul-18    12:17    2022       2237.83    33.73     14.99        8.06    2018-07-10T19:17Z    
Kelp       July10_PK_S       -121.9017       36.62161667    S         0        10-Jul-18    12:17    2001.11    2239.39    33.73     14.99        8.11    2018-07-10T19:17Z    
Kelp       July13_PK_1B      -121.9017       36.62161667    1B        9.073    13-Jul-18    12:15    2064.74    2249.81    33.73     11.75        8.04    2018-07-13T19:15Z    
Kelp       July13_PK_1T      -121.9017       36.62161667    1T        0.927    13-Jul-18    12:15    2023.53    2241.75    34.1      16           8.05    2018-07-13T19:15Z    
Kelp       July13_PK_S       -121.9017       36.62161667    S         0        13-Jul-18    12:15    1895.56    2244.26    34.1      16           8.28    2018-07-13T19:15Z    
Outside    July13_PO_1B      -121.9007333    36.6222        1B        16.992   13-Jul-18    12:50    2136.34    2257.33    33.83     10.77        7.89    2018-07-13T19:50Z    
Outside    July13_PO_1T      -121.9007333    36.6222        1T        0.851    13-Jul-18    12:50    2053.6     2245.38    33.73     14.41        8.02    2018-07-13T19:50Z    
Outside    July13_PO_S       -121.9007333    36.6222        S         0        13-Jul-18    12:50    2055.28    2240.45    33.73     14.41        8       2018-07-13T19:50Z    
Kelp       July17_PK_1B      -121.9017       36.62161667    1B        7.524    17-Jul-18    10:49    2106.99    2244.97    33.71     15.26        7.87    2018-07-17T17:49Z    
Kelp       July17_PK_1T      -121.9017       36.62161667    1T        0.824    17-Jul-18    10:49    1953.31    2238.09    33.74     15.56        8.19    2018-07-17T17:49Z    
Kelp       July17_PK_S       -121.9017       36.62161667    S         0        17-Jul-18    10:49    1946.45    2234.66    33.74     15.56        8.19    2018-07-17T17:49Z    
Outside    July17_PO_1B      -121.9007333    36.6222        1B        15.47    17-Jul-18    11:28    2128.31    2250.2     33.78     11.83        7.88    2018-07-17T18:28Z    
Outside    July17_PO_1T      -121.9007333    36.6222        1T        0.935    17-Jul-18    11:28    1930.86    2256.75    33.74     15.71        8.25    2018-07-17T18:28Z    
Outside    July17_PO_S       -121.9007333    36.6222        S         0        17-Jul-18    11:28    1931.37    2255.2     33.74     15.71        8.25    2018-07-17T18:28Z    
Kelp       July20_PK_1B      -121.9017       36.62161667    1B        8.036    20-Jul-18    11:33    2137.28    2245.95    33.74     11.6         7.85    2018-07-20T18:33Z    
Kelp       July20_PK_1T      -121.9017       36.62161667    1T        1.479    20-Jul-18    11:33    1970.97    2232.91    33.69     14.85        8.16    2018-07-20T18:33Z    
Kelp       July20_PK_S       -121.9017       36.62161667    S         0        20-Jul-18    11:33    1923.99    2232.79    33.67     15.09        8.24    2018-07-20T18:33Z    
Outside    July20_PO_1B      -121.9007333    36.6222        1B        17.188   20-Jul-18    12:12    2137       2245.55    33.78     11.47        7.85    2018-07-20T19:12Z    
Outside    July20_PO_1T      -121.9007333    36.6222        1T        1.232    20-Jul-18    12:12    1996.05    2243.2     33.7      15.05        8.12    2018-07-20T19:12Z    
Outside    July20_PO_S       -121.9007333    36.6222        S         0        20-Jul-18    12:12    1997.96    2246.21    33.78     15.18        8.12    2018-07-20T19:12Z    
Outside    July24_PO_1B      -121.9007333    36.6222        1B        15.968   24-Jul-18    12:30    2098.33    2254.62    33.73     13.16        7.95    2018-07-24T19:30Z    
Outside    July24_PO_1T      -121.9007333    36.6222        1T        1.458    24-Jul-18    12:30    1968.2     2240.88    33.69     15.73        8.16    2018-07-24T19:30Z    
Outside    July24_PO_S       -121.9007333    36.6222        S         0        24-Jul-18    12:30    1970.47    2244.69    33.69     15.73        8.16    2018-07-24T19:30Z    
Kelp       July24_PK_1B      -121.9017       36.62161667    1B        8.103    24-Jul-18    13:02    2020.48    2247.52    33.71     15.72        8.07    2018-07-24T20:02Z    
Kelp       July24_PK_1T      -121.9017       36.62161667    1T        1.122    24-Jul-18    13:02    1948.24    2249.74    33.65     16.12        8.21    2018-07-24T20:02Z    
Kelp       July24_PK_S       -121.9017       36.62161667    S         0        24-Jul-18    13:02    1944.44    2244.82    33.6      16.61        8.2     2018-07-24T20:02Z    
Kelp       July27_PK_1B      -121.9017       36.62161667    1B        8.013    27-Jul-18    13:54    2020.24    2241.07    33.7      15.7         8.06    2018-07-27T20:54Z    
Kelp       July27_PK_1T      -121.9017       36.62161667    1T        1.024    27-Jul-18    13:54    1964.75    2239.71    33.59     16.23        8.16    2018-07-27T20:54Z    
Kelp       July27_PK_S       -121.9017       36.62161667    S         0        27-Jul-18    13:54    1964.2     2236.1     33.72     16.17        8.15    2018-07-27T20:54Z    
Outside    July27_PO_1B      -121.9007333    36.6222        1B        16.433   27-Jul-18    14:12    2145.2     2249.9     33.72     12.4         7.82    2018-07-27T21:12Z    
Outside    July27_PO_1T      -121.9007333    36.6222        1T        0.966    27-Jul-18    14:12    1981.38    2249.79    33.56     15.98        8.15    2018-07-27T21:12Z    
Outside    July27_PO_S       -121.9007333    36.6222        S         0        27-Jul-18    14:12    1979.59    2247.03    33.56     15.98        8.15    2018-07-27T21:12Z    
Outside    July31_PO_1B_b    -121.9007333    36.6222        1B        17.087   31-Jul-18    11:30    2196.92    nd         33.85     10.32        nd      2018-07-31T18:30Z    
Outside    July31_PO_1T      -121.9007333    36.6222        1T        1.06     31-Jul-18    11:30    2046.77    2247.11    33.41     14.57        8.04    2018-07-31T18:30Z    
Outside    July31_PO_S       -121.9007333    36.6222        S         0        31-Jul-18    11:30    2042.34    2248.99    33.6      14.67        8.05    2018-07-31T18:30Z    
Kelp       July31_PK_1B      -121.9017       36.62161667    1B        8.503    31-Jul-18    12:04    2179.58    2269.65    33.77     11.43        7.79    2018-07-31T19:04Z    
Kelp       July31_PK_1T      -121.9017       36.62161667    1T        0.967    31-Jul-18    12:04    2056.04    2250.16    33.63     14.33        8.02    2018-07-31T19:04Z    
Kelp       July31_PK_S       -121.9017       36.62161667    S         0        31-Jul-18    12:04    2048.69    2249.46    33.6      14.44        8.04    2018-07-31T19:04Z    
Outside    Aug3_PO_1B        -121.9007333    36.6222        1B        16.427   03-Aug-18    13:21    2150.12    2245.26    33.81     10.83        7.82    2018-08-03T20:21Z    
Outside    Aug3_PO_1T        -121.9007333    36.6222        1T        1.049    03-Aug-18    13:21    2063.23    2231.73    33.78     13.7         7.97    2018-08-03T20:21Z    
Outside    Aug3_PO_S         -121.9007333    36.6222        S         0        03-Aug-18    13:21    2062.15    2229.93    33.62     13.83        7.97    2018-08-03T20:21Z    
Kelp       Aug3_PK_1B        -121.9017       36.62161667    1B        8.891    03-Aug-18    13:42    2163.21    2248.27    33.7      11.82        7.78    2018-08-03T20:42Z    
Kelp       Aug3_PK_1T        -121.9017       36.62161667    1T        0.993    03-Aug-18    13:42    2043.85    2229.88    33.71     13.9         8.01    2018-08-03T20:42Z    
Kelp       Aug3_PK_S         -121.9017       36.62161667    S         0        03-Aug-18    13:42    2034.77    2229.5     33.71     13.9         8.03    2018-08-03T20:42Z